Aviation Digital Data Service (ADDS)

Output produced by TAFs form (0424 UTC 02 September 2015)
found at http://aviationweather.gov/adds/tafs/
 
KTCC 012340Z 0200/0224 22009G17KT P6SM VCSH BKN110 
     TEMPO 0200/0202 VRB17G28KT -TSRA OVC080CB 
     FM020300 20010KT P6SM BKN120 
     FM021600 22012G20KT P6SM SCT100